sensor_id;sensor_type;location;lat;lon;timestamp;P1;durP1;ratioP1;P2;durP2;ratioP2
49472;SDS011;67434;50.956;6.918;2023-06-26T00:01:12;7.47;;;4.70;;
49472;SDS011;67434;50.956;6.918;2023-06-26T00:03:37;5.60;;;4.57;;
49472;SDS011;67434;50.956;6.918;2023-06-26T00:06:02;5.25;;;4.15;;
49472;SDS011;67434;50.956;6.918;2023-06-26T00:08:28;7.10;;;4.47;;
49472;SDS011;67434;50.956;6.918;2023-06-26T00:10:53;5.65;;;4.72;;
49472;SDS011;67434;50.956;6.918;2023-06-26T00:13:19;5.22;;;4.68;;
49472;SDS011;67434;50.956;6.918;2023-06-26T00:15:45;4.75;;;4.28;;
49472;SDS011;67434;50.956;6.918;2023-06-26T00:18:10;6.18;;;4.43;;
49472;SDS011;67434;50.956;6.918;2023-06-26T00:20:36;6.75;;;4.65;;
49472;SDS011;67434;50.956;6.918;2023-06-26T00:23:01;5.22;;;4.72;;
49472;SDS011;67434;50.956;6.918;2023-06-26T00:25:29;6.85;;;4.68;;
49472;SDS011;67434;50.956;6.918;2023-06-26T00:27:54;5.20;;;4.30;;
49472;SDS011;67434;50.956;6.918;2023-06-26T00:30:19;6.35;;;4.80;;
49472;SDS011;67434;50.956;6.918;2023-06-26T00:32:45;6.43;;;4.88;;
49472;SDS011;67434;50.956;6.918;2023-06-26T00:35:10;5.03;;;4.50;;
49472;SDS011;67434;50.956;6.918;2023-06-26T00:37:36;5.93;;;5.10;;
49472;SDS011;67434;50.956;6.918;2023-06-26T00:40:01;6.63;;;4.68;;
49472;SDS011;67434;50.956;6.918;2023-06-26T00:42:29;6.13;;;4.28;;
49472;SDS011;67434;50.956;6.918;2023-06-26T00:44:55;8.05;;;4.50;;
49472;SDS011;67434;50.956;6.918;2023-06-26T00:47:21;6.18;;;5.20;;
49472;SDS011;67434;50.956;6.918;2023-06-26T00:49:47;6.35;;;5.03;;
49472;SDS011;67434;50.956;6.918;2023-06-26T00:52:13;10.00;;;5.47;;
49472;SDS011;67434;50.956;6.918;2023-06-26T00:54:38;5.65;;;5.05;;
49472;SDS011;67434;50.956;6.918;2023-06-26T00:57:04;6.45;;;5.38;;
49472;SDS011;67434;50.956;6.918;2023-06-26T00:59:30;5.68;;;4.82;;
49472;SDS011;67434;50.956;6.918;2023-06-26T01:01:55;6.70;;;5.15;;
49472;SDS011;67434;50.956;6.918;2023-06-26T01:04:20;6.20;;;4.65;;
49472;SDS011;67434;50.956;6.918;2023-06-26T01:06:46;8.20;;;4.82;;
49472;SDS011;67434;50.956;6.918;2023-06-26T01:09:20;5.93;;;5.20;;
49472;SDS011;67434;50.956;6.918;2023-06-26T01:11:47;5.63;;;5.03;;
49472;SDS011;67434;50.956;6.918;2023-06-26T01:14:13;6.43;;;4.50;;
49472;SDS011;67434;50.956;6.918;2023-06-26T01:16:39;7.35;;;5.05;;
49472;SDS011;67434;50.956;6.918;2023-06-26T01:19:09;5.55;;;4.80;;
49472;SDS011;67434;50.956;6.918;2023-06-26T01:21:37;7.28;;;4.55;;
49472;SDS011;67434;50.956;6.918;2023-06-26T01:26:35;7.43;;;5.00;;
49472;SDS011;67434;50.956;6.918;2023-06-26T01:29:02;6.38;;;5.07;;
49472;SDS011;67434;50.956;6.918;2023-06-26T01:31:30;5.35;;;4.43;;
49472;SDS011;67434;50.956;6.918;2023-06-26T01:33:57;7.38;;;4.90;;
49472;SDS011;67434;50.956;6.918;2023-06-26T01:36:24;6.18;;;4.38;;
49472;SDS011;67434;50.956;6.918;2023-06-26T01:38:50;6.68;;;5.70;;
49472;SDS011;67434;50.956;6.918;2023-06-26T01:41:16;5.50;;;5.00;;
49472;SDS011;67434;50.956;6.918;2023-06-26T01:54:56;5.00;;;4.50;;
49472;SDS011;67434;50.956;6.918;2023-06-26T01:57:33;6.22;;;4.97;;
49472;SDS011;67434;50.956;6.918;2023-06-26T02:00:01;8.57;;;5.68;;
49472;SDS011;67434;50.956;6.918;2023-06-26T02:02:28;5.70;;;4.95;;
49472;SDS011;67434;50.956;6.918;2023-06-26T02:04:54;7.88;;;5.15;;
49472;SDS011;67434;50.956;6.918;2023-06-26T02:07:19;6.53;;;5.28;;
49472;SDS011;67434;50.956;6.918;2023-06-26T02:09:47;5.85;;;5.10;;
49472;SDS011;67434;50.956;6.918;2023-06-26T02:12:13;5.60;;;5.00;;
49472;SDS011;67434;50.956;6.918;2023-06-26T02:14:38;6.15;;;5.13;;
49472;SDS011;67434;50.956;6.918;2023-06-26T02:17:04;5.35;;;4.55;;
49472;SDS011;67434;50.956;6.918;2023-06-26T02:19:29;7.47;;;4.82;;
49472;SDS011;67434;50.956;6.918;2023-06-26T02:21:55;7.75;;;5.47;;
49472;SDS011;67434;50.956;6.918;2023-06-26T02:24:20;6.30;;;4.70;;
49472;SDS011;67434;50.956;6.918;2023-06-26T02:26:46;7.50;;;5.50;;
49472;SDS011;67434;50.956;6.918;2023-06-26T02:29:11;6.70;;;5.30;;
49472;SDS011;67434;50.956;6.918;2023-06-26T02:31:40;6.07;;;5.47;;
49472;SDS011;67434;50.956;6.918;2023-06-26T02:34:06;5.95;;;4.43;;
49472;SDS011;67434;50.956;6.918;2023-06-26T02:36:31;6.10;;;4.97;;
49472;SDS011;67434;50.956;6.918;2023-06-26T02:38:57;7.43;;;5.35;;
49472;SDS011;67434;50.956;6.918;2023-06-26T02:41:22;5.95;;;4.88;;
49472;SDS011;67434;50.956;6.918;2023-06-26T02:43:49;7.25;;;5.03;;
49472;SDS011;67434;50.956;6.918;2023-06-26T02:46:14;8.00;;;5.72;;
49472;SDS011;67434;50.956;6.918;2023-06-26T02:48:40;6.50;;;5.40;;
49472;SDS011;67434;50.956;6.918;2023-06-26T02:51:07;6.05;;;5.22;;
49472;SDS011;67434;50.956;6.918;2023-06-26T02:53:35;7.15;;;5.00;;
49472;SDS011;67434;50.956;6.918;2023-06-26T02:56:01;7.43;;;4.80;;
49472;SDS011;67434;50.956;6.918;2023-06-26T02:58:27;8.75;;;5.10;;
49472;SDS011;67434;50.956;6.918;2023-06-26T03:00:52;7.05;;;4.97;;
49472;SDS011;67434;50.956;6.918;2023-06-26T03:03:20;7.43;;;5.47;;
49472;SDS011;67434;50.956;6.918;2023-06-26T03:05:45;7.45;;;5.15;;
49472;SDS011;67434;50.956;6.918;2023-06-26T03:08:10;5.90;;;5.28;;
49472;SDS011;67434;50.956;6.918;2023-06-26T03:10:36;6.90;;;4.90;;
49472;SDS011;67434;50.956;6.918;2023-06-26T03:13:01;7.50;;;4.75;;
49472;SDS011;67434;50.956;6.918;2023-06-26T03:15:27;6.32;;;5.30;;
49472;SDS011;67434;50.956;6.918;2023-06-26T03:17:52;17.80;;;4.80;;
49472;SDS011;67434;50.956;6.918;2023-06-26T03:20:17;5.63;;;5.03;;
49472;SDS011;67434;50.956;6.918;2023-06-26T03:22:43;11.38;;;4.43;;
49472;SDS011;67434;50.956;6.918;2023-06-26T03:25:08;5.30;;;4.35;;
49472;SDS011;67434;50.956;6.918;2023-06-26T03:27:34;6.45;;;4.65;;
49472;SDS011;67434;50.956;6.918;2023-06-26T03:32:32;5.40;;;4.18;;
49472;SDS011;67434;50.956;6.918;2023-06-26T03:34:58;8.15;;;4.60;;
49472;SDS011;67434;50.956;6.918;2023-06-26T03:37:23;5.30;;;4.15;;
49472;SDS011;67434;50.956;6.918;2023-06-26T03:39:48;6.82;;;4.63;;
49472;SDS011;67434;50.956;6.918;2023-06-26T03:42:14;7.63;;;3.97;;
49472;SDS011;67434;50.956;6.918;2023-06-26T03:44:39;7.47;;;3.78;;
49472;SDS011;67434;50.956;6.918;2023-06-26T03:47:05;5.68;;;4.60;;
49472;SDS011;67434;50.956;6.918;2023-06-26T03:49:30;6.35;;;5.15;;
49472;SDS011;67434;50.956;6.918;2023-06-26T03:51:56;7.53;;;4.28;;
49472;SDS011;67434;50.956;6.918;2023-06-26T03:54:21;5.53;;;4.78;;
49472;SDS011;67434;50.956;6.918;2023-06-26T03:56:53;5.28;;;3.90;;
49472;SDS011;67434;50.956;6.918;2023-06-26T03:59:18;5.95;;;4.82;;
49472;SDS011;67434;50.956;6.918;2023-06-26T04:01:44;6.72;;;4.03;;
49472;SDS011;67434;50.956;6.918;2023-06-26T04:04:12;6.32;;;4.22;;
49472;SDS011;67434;50.956;6.918;2023-06-26T04:06:37;5.65;;;4.13;;
49472;SDS011;67434;50.956;6.918;2023-06-26T04:09:02;11.65;;;3.90;;
49472;SDS011;67434;50.956;6.918;2023-06-26T04:11:40;7.18;;;4.20;;
49472;SDS011;67434;50.956;6.918;2023-06-26T04:14:06;7.35;;;4.05;;
49472;SDS011;67434;50.956;6.918;2023-06-26T04:16:31;4.93;;;3.72;;
49472;SDS011;67434;50.956;6.918;2023-06-26T04:18:59;5.95;;;3.90;;
49472;SDS011;67434;50.956;6.918;2023-06-26T04:21:26;6.38;;;3.83;;
49472;SDS011;67434;50.956;6.918;2023-06-26T04:23:54;10.13;;;4.20;;
49472;SDS011;67434;50.956;6.918;2023-06-26T04:26:19;6.55;;;3.60;;
49472;SDS011;67434;50.956;6.918;2023-06-26T04:28:45;6.18;;;3.72;;
49472;SDS011;67434;50.956;6.918;2023-06-26T04:31:10;12.38;;;4.45;;
49472;SDS011;67434;50.956;6.918;2023-06-26T04:33:37;6.13;;;3.55;;
49472;SDS011;67434;50.956;6.918;2023-06-26T04:36:05;9.48;;;3.67;;
49472;SDS011;67434;50.956;6.918;2023-06-26T04:38:34;7.75;;;3.47;;
49472;SDS011;67434;50.956;6.918;2023-06-26T04:41:02;9.32;;;3.85;;
49472;SDS011;67434;50.956;6.918;2023-06-26T04:43:28;4.93;;;4.07;;
49472;SDS011;67434;50.956;6.918;2023-06-26T04:46:12;6.00;;;3.50;;
49472;SDS011;67434;50.956;6.918;2023-06-26T04:48:38;4.32;;;3.35;;
49472;SDS011;67434;50.956;6.918;2023-06-26T04:51:04;6.35;;;3.72;;
49472;SDS011;67434;50.956;6.918;2023-06-26T04:53:29;4.13;;;3.05;;
49472;SDS011;67434;50.956;6.918;2023-06-26T04:55:54;5.47;;;3.45;;
49472;SDS011;67434;50.956;6.918;2023-06-26T04:58:20;7.65;;;3.53;;
49472;SDS011;67434;50.956;6.918;2023-06-26T05:00:46;11.57;;;3.88;;
49472;SDS011;67434;50.956;6.918;2023-06-26T05:03:12;4.15;;;3.38;;
49472;SDS011;67434;50.956;6.918;2023-06-26T05:05:39;10.70;;;3.40;;
49472;SDS011;67434;50.956;6.918;2023-06-26T05:10:49;7.70;;;2.88;;
49472;SDS011;67434;50.956;6.918;2023-06-26T05:13:15;3.85;;;3.38;;
49472;SDS011;67434;50.956;6.918;2023-06-26T05:15:43;4.55;;;3.50;;
49472;SDS011;67434;50.956;6.918;2023-06-26T05:18:12;8.82;;;3.70;;
49472;SDS011;67434;50.956;6.918;2023-06-26T05:20:43;6.68;;;3.92;;
49472;SDS011;67434;50.956;6.918;2023-06-26T05:23:10;6.50;;;3.92;;
49472;SDS011;67434;50.956;6.918;2023-06-26T05:25:37;5.60;;;3.40;;
49472;SDS011;67434;50.956;6.918;2023-06-26T05:28:02;6.75;;;2.97;;
49472;SDS011;67434;50.956;6.918;2023-06-26T05:30:30;5.63;;;3.38;;
49472;SDS011;67434;50.956;6.918;2023-06-26T05:32:56;4.78;;;3.13;;
49472;SDS011;67434;50.956;6.918;2023-06-26T05:35:27;4.43;;;2.90;;
49472;SDS011;67434;50.956;6.918;2023-06-26T05:37:55;8.50;;;3.75;;
49472;SDS011;67434;50.956;6.918;2023-06-26T05:40:20;5.22;;;2.80;;
49472;SDS011;67434;50.956;6.918;2023-06-26T05:42:46;6.85;;;3.38;;
49472;SDS011;67434;50.956;6.918;2023-06-26T05:45:12;4.07;;;3.08;;
49472;SDS011;67434;50.956;6.918;2023-06-26T05:47:37;5.47;;;3.20;;
49472;SDS011;67434;50.956;6.918;2023-06-26T05:50:03;9.48;;;4.07;;
49472;SDS011;67434;50.956;6.918;2023-06-26T05:52:29;6.68;;;3.25;;
49472;SDS011;67434;50.956;6.918;2023-06-26T05:54:55;5.80;;;3.00;;
49472;SDS011;67434;50.956;6.918;2023-06-26T05:57:25;4.82;;;3.35;;
49472;SDS011;67434;50.956;6.918;2023-06-26T05:59:53;4.97;;;2.90;;
49472;SDS011;67434;50.956;6.918;2023-06-26T06:02:19;7.30;;;3.10;;
49472;SDS011;67434;50.956;6.918;2023-06-26T06:04:47;6.72;;;3.42;;
49472;SDS011;67434;50.956;6.918;2023-06-26T06:07:12;6.35;;;3.25;;
49472;SDS011;67434;50.956;6.918;2023-06-26T06:09:38;5.95;;;3.03;;
49472;SDS011;67434;50.956;6.918;2023-06-26T06:12:04;9.10;;;3.55;;
49472;SDS011;67434;50.956;6.918;2023-06-26T06:14:30;8.27;;;2.90;;
49472;SDS011;67434;50.956;6.918;2023-06-26T06:17:09;5.85;;;3.45;;
49472;SDS011;67434;50.956;6.918;2023-06-26T06:19:40;8.85;;;3.42;;
49472;SDS011;67434;50.956;6.918;2023-06-26T06:22:06;8.27;;;3.00;;
49472;SDS011;67434;50.956;6.918;2023-06-26T06:24:31;7.75;;;2.85;;
49472;SDS011;67434;50.956;6.918;2023-06-26T06:26:56;6.60;;;3.45;;
49472;SDS011;67434;50.956;6.918;2023-06-26T06:29:22;3.92;;;3.15;;
49472;SDS011;67434;50.956;6.918;2023-06-26T06:31:47;6.07;;;2.83;;
49472;SDS011;67434;50.956;6.918;2023-06-26T06:34:13;4.72;;;2.80;;
49472;SDS011;67434;50.956;6.918;2023-06-26T06:36:38;6.78;;;3.08;;
49472;SDS011;67434;50.956;6.918;2023-06-26T06:39:04;8.23;;;3.70;;
49472;SDS011;67434;50.956;6.918;2023-06-26T06:41:48;4.45;;;3.28;;
49472;SDS011;67434;50.956;6.918;2023-06-26T06:44:16;7.07;;;3.08;;
49472;SDS011;67434;50.956;6.918;2023-06-26T06:46:41;5.28;;;2.92;;
49472;SDS011;67434;50.956;6.918;2023-06-26T06:49:12;7.97;;;3.10;;
49472;SDS011;67434;50.956;6.918;2023-06-26T06:51:38;5.72;;;2.78;;
49472;SDS011;67434;50.956;6.918;2023-06-26T06:54:03;4.25;;;2.63;;
49472;SDS011;67434;50.956;6.918;2023-06-26T06:56:28;7.20;;;2.58;;
49472;SDS011;67434;50.956;6.918;2023-06-26T06:58:54;7.80;;;3.13;;
49472;SDS011;67434;50.956;6.918;2023-06-26T07:01:19;7.78;;;3.20;;
49472;SDS011;67434;50.956;6.918;2023-06-26T07:03:44;7.75;;;3.08;;
49472;SDS011;67434;50.956;6.918;2023-06-26T07:06:10;8.18;;;2.92;;
49472;SDS011;67434;50.956;6.918;2023-06-26T07:08:35;7.55;;;2.55;;
49472;SDS011;67434;50.956;6.918;2023-06-26T07:11:00;5.20;;;3.05;;
49472;SDS011;67434;50.956;6.918;2023-06-26T07:13:27;6.78;;;3.00;;
49472;SDS011;67434;50.956;6.918;2023-06-26T07:15:52;10.35;;;3.30;;
49472;SDS011;67434;50.956;6.918;2023-06-26T07:18:18;7.13;;;3.40;;
49472;SDS011;67434;50.956;6.918;2023-06-26T07:20:43;5.15;;;3.17;;
49472;SDS011;67434;50.956;6.918;2023-06-26T07:23:09;7.80;;;3.00;;
49472;SDS011;67434;50.956;6.918;2023-06-26T07:25:34;6.68;;;3.00;;
49472;SDS011;67434;50.956;6.918;2023-06-26T07:28:00;4.13;;;2.85;;
49472;SDS011;67434;50.956;6.918;2023-06-26T07:30:26;10.23;;;3.78;;
49472;SDS011;67434;50.956;6.918;2023-06-26T07:32:51;5.82;;;3.50;;
49472;SDS011;67434;50.956;6.918;2023-06-26T07:35:17;7.03;;;3.70;;
49472;SDS011;67434;50.956;6.918;2023-06-26T07:37:43;9.88;;;3.40;;
49472;SDS011;67434;50.956;6.918;2023-06-26T07:40:09;8.68;;;3.45;;
49472;SDS011;67434;50.956;6.918;2023-06-26T07:42:35;7.38;;;3.60;;
49472;SDS011;67434;50.956;6.918;2023-06-26T07:45:00;3.95;;;2.97;;
49472;SDS011;67434;50.956;6.918;2023-06-26T07:47:26;4.82;;;2.72;;
49472;SDS011;67434;50.956;6.918;2023-06-26T07:49:57;4.57;;;2.95;;
49472;SDS011;67434;50.956;6.918;2023-06-26T07:52:22;9.65;;;3.53;;
49472;SDS011;67434;50.956;6.918;2023-06-26T07:54:47;8.60;;;2.78;;
49472;SDS011;67434;50.956;6.918;2023-06-26T07:57:13;5.28;;;3.13;;
49472;SDS011;67434;50.956;6.918;2023-06-26T07:59:38;6.07;;;3.08;;
49472;SDS011;67434;50.956;6.918;2023-06-26T08:02:04;6.85;;;3.47;;
49472;SDS011;67434;50.956;6.918;2023-06-26T08:04:29;11.85;;;3.20;;
49472;SDS011;67434;50.956;6.918;2023-06-26T08:07:03;6.25;;;3.75;;
49472;SDS011;67434;50.956;6.918;2023-06-26T08:09:29;6.40;;;3.25;;
49472;SDS011;67434;50.956;6.918;2023-06-26T08:11:55;14.20;;;3.17;;
49472;SDS011;67434;50.956;6.918;2023-06-26T08:14:21;8.18;;;2.65;;
49472;SDS011;67434;50.956;6.918;2023-06-26T08:16:47;6.45;;;3.28;;
49472;SDS011;67434;50.956;6.918;2023-06-26T08:19:13;8.50;;;3.47;;
49472;SDS011;67434;50.956;6.918;2023-06-26T08:21:43;7.00;;;3.10;;
49472;SDS011;67434;50.956;6.918;2023-06-26T08:24:09;5.60;;;2.85;;
49472;SDS011;67434;50.956;6.918;2023-06-26T08:26:35;8.27;;;3.10;;
49472;SDS011;67434;50.956;6.918;2023-06-26T08:29:01;6.70;;;3.63;;
49472;SDS011;67434;50.956;6.918;2023-06-26T08:31:33;10.40;;;3.83;;
49472;SDS011;67434;50.956;6.918;2023-06-26T08:34:01;5.35;;;2.65;;
49472;SDS011;67434;50.956;6.918;2023-06-26T08:36:29;7.35;;;3.40;;
49472;SDS011;67434;50.956;6.918;2023-06-26T08:38:54;8.88;;;3.35;;
49472;SDS011;67434;50.956;6.918;2023-06-26T08:41:20;8.82;;;3.70;;
49472;SDS011;67434;50.956;6.918;2023-06-26T08:43:45;8.73;;;3.47;;
49472;SDS011;67434;50.956;6.918;2023-06-26T08:46:12;7.65;;;3.17;;
49472;SDS011;67434;50.956;6.918;2023-06-26T08:48:39;7.88;;;3.20;;
49472;SDS011;67434;50.956;6.918;2023-06-26T08:51:09;5.68;;;3.25;;
49472;SDS011;67434;50.956;6.918;2023-06-26T08:56:21;5.38;;;3.00;;
49472;SDS011;67434;50.956;6.918;2023-06-26T08:58:47;5.22;;;2.92;;
49472;SDS011;67434;50.956;6.918;2023-06-26T09:01:17;7.80;;;3.30;;
49472;SDS011;67434;50.956;6.918;2023-06-26T09:03:44;10.68;;;3.85;;
49472;SDS011;67434;50.956;6.918;2023-06-26T09:06:09;6.97;;;3.97;;
49472;SDS011;67434;50.956;6.918;2023-06-26T09:08:36;7.88;;;3.05;;
49472;SDS011;67434;50.956;6.918;2023-06-26T09:11:01;5.75;;;2.40;;
49472;SDS011;67434;50.956;6.918;2023-06-26T09:13:28;7.68;;;3.63;;
49472;SDS011;67434;50.956;6.918;2023-06-26T09:15:55;8.13;;;2.70;;
49472;SDS011;67434;50.956;6.918;2023-06-26T09:18:20;8.07;;;2.92;;
49472;SDS011;67434;50.956;6.918;2023-06-26T09:20:47;4.85;;;2.88;;
49472;SDS011;67434;50.956;6.918;2023-06-26T09:23:13;10.35;;;3.35;;
49472;SDS011;67434;50.956;6.918;2023-06-26T09:25:41;10.30;;;2.85;;
49472;SDS011;67434;50.956;6.918;2023-06-26T09:28:09;6.72;;;3.25;;
49472;SDS011;67434;50.956;6.918;2023-06-26T09:30:35;11.25;;;3.45;;
49472;SDS011;67434;50.956;6.918;2023-06-26T09:33:14;8.75;;;2.83;;
49472;SDS011;67434;50.956;6.918;2023-06-26T09:35:45;7.40;;;3.10;;
49472;SDS011;67434;50.956;6.918;2023-06-26T09:38:12;7.43;;;2.80;;
49472;SDS011;67434;50.956;6.918;2023-06-26T09:40:38;11.00;;;3.05;;
49472;SDS011;67434;50.956;6.918;2023-06-26T09:43:04;6.88;;;3.55;;
49472;SDS011;67434;50.956;6.918;2023-06-26T09:45:36;8.43;;;2.80;;
49472;SDS011;67434;50.956;6.918;2023-06-26T09:48:03;3.28;;;2.47;;
49472;SDS011;67434;50.956;6.918;2023-06-26T09:50:29;8.48;;;3.80;;
49472;SDS011;67434;50.956;6.918;2023-06-26T09:52:55;6.88;;;2.53;;
49472;SDS011;67434;50.956;6.918;2023-06-26T09:55:21;4.20;;;2.75;;
49472;SDS011;67434;50.956;6.918;2023-06-26T09:57:48;6.40;;;2.50;;
49472;SDS011;67434;50.956;6.918;2023-06-26T10:00:15;11.27;;;3.50;;
49472;SDS011;67434;50.956;6.918;2023-06-26T10:02:40;7.13;;;3.05;;
49472;SDS011;67434;50.956;6.918;2023-06-26T10:05:05;10.55;;;2.78;;
49472;SDS011;67434;50.956;6.918;2023-06-26T10:07:31;10.98;;;3.10;;
49472;SDS011;67434;50.956;6.918;2023-06-26T10:09:57;6.78;;;2.30;;
49472;SDS011;67434;50.956;6.918;2023-06-26T10:12:25;6.50;;;2.47;;
49472;SDS011;67434;50.956;6.918;2023-06-26T10:14:53;12.20;;;3.13;;
49472;SDS011;67434;50.956;6.918;2023-06-26T10:17:19;11.90;;;2.90;;
49472;SDS011;67434;50.956;6.918;2023-06-26T10:19:46;6.07;;;2.67;;
49472;SDS011;67434;50.956;6.918;2023-06-26T10:22:14;7.38;;;2.45;;
49472;SDS011;67434;50.956;6.918;2023-06-26T10:24:42;6.15;;;2.65;;
49472;SDS011;67434;50.956;6.918;2023-06-26T10:27:19;5.97;;;2.88;;
49472;SDS011;67434;50.956;6.918;2023-06-26T10:29:51;3.85;;;2.47;;
49472;SDS011;67434;50.956;6.918;2023-06-26T10:32:20;5.80;;;2.15;;
49472;SDS011;67434;50.956;6.918;2023-06-26T10:34:46;8.20;;;2.40;;
49472;SDS011;67434;50.956;6.918;2023-06-26T10:37:12;9.05;;;2.08;;
49472;SDS011;67434;50.956;6.918;2023-06-26T10:39:48;3.83;;;2.05;;
49472;SDS011;67434;50.956;6.918;2023-06-26T10:42:18;6.53;;;2.45;;
49472;SDS011;67434;50.956;6.918;2023-06-26T10:44:45;5.47;;;2.50;;
49472;SDS011;67434;50.956;6.918;2023-06-26T10:47:12;6.97;;;2.60;;
49472;SDS011;67434;50.956;6.918;2023-06-26T10:49:55;6.75;;;2.30;;
49472;SDS011;67434;50.956;6.918;2023-06-26T10:52:25;4.32;;;2.10;;
49472;SDS011;67434;50.956;6.918;2023-06-26T10:54:52;3.15;;;1.40;;
49472;SDS011;67434;50.956;6.918;2023-06-26T10:57:23;4.45;;;1.90;;
49472;SDS011;67434;50.956;6.918;2023-06-26T11:00:08;7.72;;;2.65;;
49472;SDS011;67434;50.956;6.918;2023-06-26T11:02:47;6.75;;;2.10;;
49472;SDS011;67434;50.956;6.918;2023-06-26T11:05:13;3.65;;;1.92;;
49472;SDS011;67434;50.956;6.918;2023-06-26T11:11:06;7.22;;;1.90;;
49472;SDS011;67434;50.956;6.918;2023-06-26T11:13:32;2.10;;;1.45;;
49472;SDS011;67434;50.956;6.918;2023-06-26T11:16:00;10.65;;;1.77;;
49472;SDS011;67434;50.956;6.918;2023-06-26T11:18:26;6.43;;;1.80;;
49472;SDS011;67434;50.956;6.918;2023-06-26T11:21:07;4.45;;;1.80;;
49472;SDS011;67434;50.956;6.918;2023-06-26T11:23:35;7.50;;;1.90;;
49472;SDS011;67434;50.956;6.918;2023-06-26T11:26:17;2.72;;;1.83;;
49472;SDS011;67434;50.956;6.918;2023-06-26T11:28:49;6.35;;;2.05;;
49472;SDS011;67434;50.956;6.918;2023-06-26T11:31:29;2.95;;;1.95;;
49472;SDS011;67434;50.956;6.918;2023-06-26T11:33:59;4.90;;;2.25;;
49472;SDS011;67434;50.956;6.918;2023-06-26T11:36:26;4.95;;;2.95;;
49472;SDS011;67434;50.956;6.918;2023-06-26T11:38:52;4.13;;;1.70;;
49472;SDS011;67434;50.956;6.918;2023-06-26T11:41:19;10.90;;;4.47;;
49472;SDS011;67434;50.956;6.918;2023-06-26T11:43:44;3.58;;;1.70;;
49472;SDS011;67434;50.956;6.918;2023-06-26T11:46:09;6.90;;;2.13;;
49472;SDS011;67434;50.956;6.918;2023-06-26T11:48:35;5.38;;;1.70;;
49472;SDS011;67434;50.956;6.918;2023-06-26T11:51:00;4.25;;;1.60;;
49472;SDS011;67434;50.956;6.918;2023-06-26T11:53:29;7.07;;;1.65;;
49472;SDS011;67434;50.956;6.918;2023-06-26T11:55:55;3.17;;;1.60;;
49472;SDS011;67434;50.956;6.918;2023-06-26T11:58:20;8.25;;;1.83;;
49472;SDS011;67434;50.956;6.918;2023-06-26T12:00:47;5.22;;;1.60;;
49472;SDS011;67434;50.956;6.918;2023-06-26T12:03:13;4.35;;;1.00;;
49472;SDS011;67434;50.956;6.918;2023-06-26T12:05:38;3.28;;;1.48;;
49472;SDS011;67434;50.956;6.918;2023-06-26T12:08:04;6.57;;;2.03;;
49472;SDS011;67434;50.956;6.918;2023-06-26T12:10:31;3.42;;;1.52;;
49472;SDS011;67434;50.956;6.918;2023-06-26T12:12:57;2.50;;;1.17;;
49472;SDS011;67434;50.956;6.918;2023-06-26T12:15:24;3.45;;;1.77;;
49472;SDS011;67434;50.956;6.918;2023-06-26T12:17:49;3.08;;;1.30;;
49472;SDS011;67434;50.956;6.918;2023-06-26T12:20:21;3.50;;;1.90;;
49472;SDS011;67434;50.956;6.918;2023-06-26T12:22:47;4.55;;;1.38;;
49472;SDS011;67434;50.956;6.918;2023-06-26T12:25:14;4.32;;;1.58;;
49472;SDS011;67434;50.956;6.918;2023-06-26T12:27:39;7.28;;;1.35;;
49472;SDS011;67434;50.956;6.918;2023-06-26T12:30:05;9.93;;;2.13;;
49472;SDS011;67434;50.956;6.918;2023-06-26T12:32:31;3.70;;;1.60;;
49472;SDS011;67434;50.956;6.918;2023-06-26T12:34:57;5.82;;;2.03;;
49472;SDS011;67434;50.956;6.918;2023-06-26T12:37:23;4.50;;;1.50;;
49472;SDS011;67434;50.956;6.918;2023-06-26T12:39:55;3.33;;;1.48;;
49472;SDS011;67434;50.956;6.918;2023-06-26T12:42:23;6.03;;;1.30;;
49472;SDS011;67434;50.956;6.918;2023-06-26T12:44:49;7.80;;;1.25;;
49472;SDS011;67434;50.956;6.918;2023-06-26T12:47:16;12.38;;;2.13;;
49472;SDS011;67434;50.956;6.918;2023-06-26T12:49:43;4.55;;;1.05;;
49472;SDS011;67434;50.956;6.918;2023-06-26T12:52:14;6.88;;;2.58;;
49472;SDS011;67434;50.956;6.918;2023-06-26T12:54:40;2.92;;;1.08;;
49472;SDS011;67434;50.956;6.918;2023-06-26T12:57:07;8.88;;;1.17;;
49472;SDS011;67434;50.956;6.918;2023-06-26T12:59:34;5.72;;;0.65;;
49472;SDS011;67434;50.956;6.918;2023-06-26T13:02:01;5.68;;;0.95;;
49472;SDS011;67434;50.956;6.918;2023-06-26T13:04:26;4.43;;;0.75;;
49472;SDS011;67434;50.956;6.918;2023-06-26T13:06:52;5.45;;;0.80;;
49472;SDS011;67434;50.956;6.918;2023-06-26T13:09:20;2.50;;;0.75;;
49472;SDS011;67434;50.956;6.918;2023-06-26T13:11:46;3.90;;;0.90;;
49472;SDS011;67434;50.956;6.918;2023-06-26T13:14:14;3.90;;;0.80;;
49472;SDS011;67434;50.956;6.918;2023-06-26T13:16:40;4.53;;;0.90;;
49472;SDS011;67434;50.956;6.918;2023-06-26T13:19:05;10.25;;;1.55;;
49472;SDS011;67434;50.956;6.918;2023-06-26T13:21:31;6.72;;;1.30;;
49472;SDS011;67434;50.956;6.918;2023-06-26T13:23:57;12.43;;;1.30;;
49472;SDS011;67434;50.956;6.918;2023-06-26T13:26:24;10.80;;;0.82;;
49472;SDS011;67434;50.956;6.918;2023-06-26T13:28:50;9.70;;;1.30;;
49472;SDS011;67434;50.956;6.918;2023-06-26T13:31:16;10.75;;;0.65;;
49472;SDS011;67434;50.956;6.918;2023-06-26T13:33:41;7.38;;;0.65;;
49472;SDS011;67434;50.956;6.918;2023-06-26T13:36:07;7.47;;;0.90;;
49472;SDS011;67434;50.956;6.918;2023-06-26T13:38:34;6.72;;;0.82;;
49472;SDS011;67434;50.956;6.918;2023-06-26T13:40:59;9.10;;;1.05;;
49472;SDS011;67434;50.956;6.918;2023-06-26T13:43:25;3.42;;;0.50;;
49472;SDS011;67434;50.956;6.918;2023-06-26T13:45:52;5.25;;;1.10;;
49472;SDS011;67434;50.956;6.918;2023-06-26T13:48:18;5.88;;;0.65;;
49472;SDS011;67434;50.956;6.918;2023-06-26T13:50:43;5.93;;;1.23;;
49472;SDS011;67434;50.956;6.918;2023-06-26T13:53:10;3.70;;;0.70;;
49472;SDS011;67434;50.956;6.918;2023-06-26T13:55:35;1.10;;;0.60;;
49472;SDS011;67434;50.956;6.918;2023-06-26T13:58:12;3.58;;;0.60;;
49472;SDS011;67434;50.956;6.918;2023-06-26T14:00:38;4.50;;;0.70;;
49472;SDS011;67434;50.956;6.918;2023-06-26T14:03:04;6.07;;;0.80;;
49472;SDS011;67434;50.956;6.918;2023-06-26T14:05:32;5.80;;;0.63;;
49472;SDS011;67434;50.956;6.918;2023-06-26T14:07:57;3.22;;;0.70;;
49472;SDS011;67434;50.956;6.918;2023-06-26T14:10:23;4.55;;;0.70;;
49472;SDS011;67434;50.956;6.918;2023-06-26T14:12:49;2.17;;;0.73;;
49472;SDS011;67434;50.956;6.918;2023-06-26T14:15:14;4.95;;;0.90;;
49472;SDS011;67434;50.956;6.918;2023-06-26T14:17:40;0.90;;;0.50;;
49472;SDS011;67434;50.956;6.918;2023-06-26T14:20:06;4.00;;;0.75;;
49472;SDS011;67434;50.956;6.918;2023-06-26T14:22:35;3.40;;;0.60;;
49472;SDS011;67434;50.956;6.918;2023-06-26T14:25:01;4.18;;;0.75;;
49472;SDS011;67434;50.956;6.918;2023-06-26T14:27:27;6.75;;;0.70;;
49472;SDS011;67434;50.956;6.918;2023-06-26T14:29:53;5.35;;;0.80;;
49472;SDS011;67434;50.956;6.918;2023-06-26T14:32:18;3.45;;;0.80;;
49472;SDS011;67434;50.956;6.918;2023-06-26T14:34:44;6.30;;;0.70;;
49472;SDS011;67434;50.956;6.918;2023-06-26T14:37:09;1.63;;;0.70;;
49472;SDS011;67434;50.956;6.918;2023-06-26T14:39:34;3.63;;;1.10;;
49472;SDS011;67434;50.956;6.918;2023-06-26T14:42:00;7.15;;;0.90;;
49472;SDS011;67434;50.956;6.918;2023-06-26T14:44:25;5.10;;;0.80;;
49472;SDS011;67434;50.956;6.918;2023-06-26T14:46:50;4.68;;;0.70;;
49472;SDS011;67434;50.956;6.918;2023-06-26T14:49:16;6.10;;;0.75;;
49472;SDS011;67434;50.956;6.918;2023-06-26T14:51:41;5.55;;;1.02;;
49472;SDS011;67434;50.956;6.918;2023-06-26T14:54:08;2.25;;;0.75;;
49472;SDS011;67434;50.956;6.918;2023-06-26T14:56:34;1.83;;;0.68;;
49472;SDS011;67434;50.956;6.918;2023-06-26T14:58:59;3.67;;;1.30;;
49472;SDS011;67434;50.956;6.918;2023-06-26T15:01:24;3.83;;;1.17;;
49472;SDS011;67434;50.956;6.918;2023-06-26T15:03:50;5.35;;;0.95;;
49472;SDS011;67434;50.956;6.918;2023-06-26T15:06:15;2.83;;;0.65;;
49472;SDS011;67434;50.956;6.918;2023-06-26T15:08:41;3.92;;;0.60;;